Tropical Cyclones
[Index]
Main Index Home Page Stock Weather Photos Extreme Storms Discussion Storm News and Storm Chasing Reports Tropical Cyclones / Hurricanes / Typhoons Weather Data and Links Wild Fires / Bushfires Weather Observation Techniques Weather Picture Catalogue Tornado Pictures and Reports Stock Video Footage and DVDs for sale
Season 1979-1980 Tropical Cyclone DEAN Track Map
Season 1979-1980 Summaries: [BoM-AU] [JTWC-AU] [JTWC-SIO] [JTWC-SPAC] [JTWC-SH]
<<- Previous TC | BoM 1979-1980 Season | Next TC ->>

click for intensity scale information  Lat/long Grid: Show Hide

 Date Labels: Show Hide

Bureau of Meteorology Tropical Cyclone Data

Name: DEAN
Number: 601 / 197980_08

27 Jan 1980 00:00 UTC to 04 Feb 1980 00:00 UTC

    date/time    lat    long    hPa   cat  kts
1980-01-27 00   10.5   129.4   1005                     
1980-01-27 06   10.8   129.2   1002                     
1980-01-27 12   11.0   129.0   1000                     
1980-01-27 18   11.2   128.8    997                     
1980-01-28 00   11.4   128.4    994    1                
1980-01-28 06   11.5   127.6    992    1                
1980-01-28 12   11.5   126.2    990    1                
1980-01-28 18   11.7   124.6    988    1                
1980-01-29 00   11.9   123.2    986    1                
1980-01-29 06   12.3   121.1    984    2                
1980-01-29 12   12.7   120.8    982    2                
1980-01-29 18   13.1   119.9    980    2                
1980-01-30 00   13.5   119.0    978    2                
1980-01-30 06   14.1   118.0    975    2                
1980-01-30 12   14.8   117.2    972    2                
1980-01-30 15   15.2   117.0    970    3                
1980-01-30 18   15.6   117.0    968    3                
1980-01-31 00   15.9   117.1    964    3                
1980-01-31 06   16.6   117.4    958    3                
1980-01-31 12   17.7   117.9    950    4                
1980-01-31 18   18.7   118.4    942    4                
1980-02-01 00   19.9   118.9    930    4                
1980-02-01 06   21.4   119.3    955    4                
1980-02-01 12   22.5   119.5    974    2                
1980-02-01 18   23.2   120.1    980    2                
1980-02-02 00   23.7   120.6    985    2                
1980-02-02 06   24.0   121.0    989    1                
1980-02-02 12   24.2   121.4    991    1                
1980-02-02 18   24.4   121.8    993    1                
1980-02-03 00   24.6   122.3    995    1                
1980-02-03 06   24.8   123.1    996                     
1980-02-03 12   25.0   124.3    997                     
1980-02-03 18   24.9   125.7    998                     
1980-02-04 00   24.3   126.2    999                     
Winds are 10-min average.

Tropical cyclone tracks developed by Michael Bath using data from the Bureau of Meteorology and Google Maps.


[Australian Severe Weather index] [Copyright Notice] [Email Contacts] [Search This Site] [Privacy Policy]
Document: tropical_cyclone_dean.htm Updated: 30 May 2013